Time;durP1;ratioP1;P1;durP2;ratioP2;P2;SDS_P1;SDS_P2;PMS_P1;PMS_P2;Temp;Humidity;BMP_temperature;BMP_pressure;BME280_temperature;BME280_humidity;BME280_pressure;Samples;Min_cycle;Max_cycle;Signal;HPM_P1;HPM_P2
2023/12/18 00:01:40;;;;;;;15.27;7.23;;;1.50;98.00;;;;;;4991210;28;20460;-70
2023/12/18 00:04:07;;;;;;;18.37;7.90;;;1.40;98.00;;;;;;4991593;28;20452;-69
2023/12/18 00:06:34;;;;;;;19.73;7.77;;;1.30;98.00;;;;;;4992600;28;20491;-69
2023/12/18 00:09:01;;;;;;;13.83;6.80;;;1.20;98.00;;;;;;4992181;28;20456;-70
2023/12/18 00:11:28;;;;;;;19.93;7.37;;;1.20;98.00;;;;;;4992663;28;20457;-70
2023/12/18 00:13:56;;;;;;;18.70;7.70;;;1.40;98.00;;;;;;4992578;28;20448;-69
2023/12/18 00:16:24;;;;;;;21.43;7.20;;;1.30;98.00;;;;;;4992287;28;20849;-70
2023/12/18 00:18:52;;;;;;;19.77;7.60;;;1.20;98.00;;;;;;4975163;28;20476;-70
2023/12/18 00:21:19;;;;;;;17.67;7.23;;;1.20;98.00;;;;;;4992469;28;20448;-71
2023/12/18 00:23:46;;;;;;;13.73;7.13;;;1.20;98.00;;;;;;4974528;28;20448;-70
2023/12/18 00:26:14;;;;;;;13.67;6.63;;;1.20;98.00;;;;;;4974955;28;20456;-70
2023/12/18 00:28:41;;;;;;;18.00;6.90;;;1.40;98.00;;;;;;4992603;28;20536;-69
2023/12/18 00:31:09;;;;;;;25.03;7.90;;;1.40;98.00;;;;;;4992434;28;20452;-70
2023/12/18 00:33:36;;;;;;;13.60;6.70;;;1.70;98.00;;;;;;4992593;28;21023;-69
2023/12/18 00:36:04;;;;;;;16.43;6.50;;;1.80;98.00;;;;;;4992501;28;20492;-71
2023/12/18 00:38:31;;;;;;;16.67;7.00;;;1.70;98.00;;;;;;4992470;28;20460;-69
2023/12/18 00:41:00;;;;;;;20.60;7.47;;;1.50;98.00;;;;;;4992429;28;20459;-70
2023/12/18 00:43:27;;;;;;;18.63;7.23;;;1.40;98.00;;;;;;4992254;28;20483;-70
2023/12/18 00:45:55;;;;;;;19.17;8.50;;;1.20;98.00;;;;;;4992625;28;20452;-69
2023/12/18 00:48:23;;;;;;;19.73;6.80;;;1.20;98.00;;;;;;4992491;28;20511;-69
2023/12/18 00:50:51;;;;;;;14.87;6.90;;;1.30;98.00;;;;;;4977928;28;20471;-70
2023/12/18 00:53:20;;;;;;;14.17;6.70;;;1.30;98.00;;;;;;4995782;28;20506;-70
2023/12/18 00:55:47;;;;;;;15.17;6.23;;;1.50;98.00;;;;;;4978895;28;20440;-70
2023/12/18 00:58:14;;;;;;;28.47;7.83;;;1.40;98.00;;;;;;4996239;28;20831;-70
2023/12/18 01:00:41;;;;;;;14.33;6.53;;;1.40;98.00;;;;;;4995981;28;20484;-70
2023/12/18 01:03:09;;;;;;;14.60;6.73;;;1.30;98.00;;;;;;4996201;28;20510;-70
2023/12/18 01:05:37;;;;;;;16.90;7.03;;;1.30;98.00;;;;;;4995849;28;20452;-70
2023/12/18 01:08:05;;;;;;;15.03;7.00;;;1.40;98.00;;;;;;4995807;28;20453;-70
2023/12/18 01:10:34;;;;;;;15.93;7.03;;;1.40;98.00;;;;;;4995666;28;20455;-70
2023/12/18 01:13:01;;;;;;;15.30;6.77;;;1.50;98.00;;;;;;4995767;28;20467;-70
2023/12/18 01:15:29;;;;;;;17.03;7.10;;;1.30;98.00;;;;;;4978669;28;20850;-70
2023/12/18 01:17:56;;;;;;;20.70;7.03;;;1.20;98.00;;;;;;4995061;28;20460;-70
2023/12/18 01:20:23;;;;;;;18.13;7.57;;;1.20;98.00;;;;;;4978627;28;20479;-70
2023/12/18 01:22:50;;;;;;;16.57;6.60;;;1.30;98.00;;;;;;4995478;28;20972;-69
2023/12/18 01:25:18;;;;;;;15.90;7.23;;;1.40;98.00;;;;;;4995428;28;20483;-69
2023/12/18 01:27:46;;;;;;;16.07;7.33;;;1.30;98.00;;;;;;4995415;28;20467;-69
2023/12/18 01:30:15;;;;;;;13.37;6.43;;;1.10;98.00;;;;;;4995277;28;20972;-69
2023/12/18 01:32:44;;;;;;;13.47;6.80;;;1.10;98.00;;;;;;4995381;28;20464;-70
2023/12/18 01:35:11;;;;;;;19.67;6.53;;;1.30;98.00;;;;;;4978041;28;20449;-69
2023/12/18 01:37:38;;;;;;;13.37;6.60;;;1.20;98.00;;;;;;4995178;28;20546;-70
2023/12/18 01:40:06;;;;;;;17.07;6.07;;;1.10;98.00;;;;;;4995199;28;20492;-70
2023/12/18 01:42:33;;;;;;;14.60;7.03;;;1.00;98.00;;;;;;4995637;28;20487;-69
2023/12/18 01:45:02;;;;;;;15.37;6.90;;;0.90;98.00;;;;;;4995004;28;20459;-70
2023/12/18 01:47:29;;;;;;;16.27;6.83;;;0.90;98.00;;;;;;4995006;28;21012;-70
2023/12/18 01:49:56;;;;;;;15.37;6.63;;;0.90;98.00;;;;;;4995228;28;20870;-70
2023/12/18 01:52:24;;;;;;;24.90;7.13;;;0.90;98.00;;;;;;4995421;28;20939;-70
2023/12/18 01:54:52;;;;;;;13.03;6.67;;;0.80;98.00;;;;;;4995014;28;20474;-71
2023/12/18 01:57:20;;;;;;;15.57;7.40;;;0.80;98.00;;;;;;4994986;28;20457;-70
2023/12/18 01:59:50;;;;;;;13.93;6.70;;;0.90;98.00;;;;;;4994887;28;20493;-70
2023/12/18 02:02:19;;;;;;;16.13;7.20;;;0.90;98.00;;;;;;4994073;28;20550;-70
2023/12/18 02:04:47;;;;;;;15.00;6.67;;;0.80;98.00;;;;;;4994891;28;20455;-70
2023/12/18 02:07:14;;;;;;;16.53;6.97;;;0.90;98.00;;;;;;4994709;28;20456;-70
2023/12/18 02:09:42;;;;;;;16.60;7.40;;;1.10;98.00;;;;;;4994780;28;20463;-70
2023/12/18 02:12:09;;;;;;;13.80;6.60;;;1.30;98.00;;;;;;4994744;28;20499;-70
2023/12/18 02:14:37;;;;;;;25.93;7.07;;;1.30;98.00;;;;;;4994569;28;20456;-69
2023/12/18 02:17:04;;;;;;;15.10;6.33;;;1.30;98.00;;;;;;4994536;28;20463;-70
2023/12/18 02:19:48;;;;;;;24.63;6.80;;;1.00;98.00;;;;;;4977444;28;20492;-71
2023/12/18 02:22:15;;;;;;;13.80;6.80;;;0.80;98.00;;;;;;4994613;28;20456;-70
2023/12/18 02:24:44;;;;;;;16.07;7.50;;;0.70;98.00;;;;;;4977217;28;20460;-70
2023/12/18 02:27:11;;;;;;;14.33;6.97;;;0.70;98.00;;;;;;4994448;28;20466;-70
2023/12/18 02:29:38;;;;;;;15.83;7.17;;;0.70;98.00;;;;;;4994497;28;20455;-70
2023/12/18 02:32:05;;;;;;;18.23;6.93;;;0.70;98.00;;;;;;4994115;28;20457;-70
2023/12/18 02:34:32;;;;;;;19.33;7.17;;;0.80;98.00;;;;;;4994231;28;20452;-70
2023/12/18 02:37:00;;;;;;;19.03;7.37;;;0.90;98.00;;;;;;4977107;28;20452;-70
2023/12/18 02:39:27;;;;;;;13.33;6.00;;;1.00;98.00;;;;;;4994447;28;20990;-70
2023/12/18 02:41:55;;;;;;;14.40;6.90;;;1.10;98.00;;;;;;4994181;28;20456;-70
2023/12/18 02:44:22;;;;;;;15.03;6.93;;;1.20;98.00;;;;;;4994537;28;20453;-70
2023/12/18 02:46:49;;;;;;;20.30;7.60;;;1.30;98.00;;;;;;4994186;28;20453;-70
2023/12/18 02:49:16;;;;;;;17.20;6.83;;;1.30;98.00;;;;;;4993831;28;20466;-69
2023/12/18 02:51:43;;;;;;;17.63;7.40;;;1.30;98.00;;;;;;4993811;28;20448;-70
2023/12/18 02:54:13;;;;;;;16.93;6.93;;;1.40;98.00;;;;;;4994118;28;20838;-70
2023/12/18 02:56:40;;;;;;;15.87;6.83;;;1.30;98.00;;;;;;4994127;28;20459;-70
2023/12/18 02:59:09;;;;;;;16.00;7.30;;;1.20;98.00;;;;;;4993258;28;20467;-70
2023/12/18 03:01:36;;;;;;;18.60;6.90;;;1.00;98.00;;;;;;4993792;28;20452;-70
2023/12/18 03:04:03;;;;;;;16.93;6.00;;;0.90;98.00;;;;;;4993781;28;21017;-70
2023/12/18 03:06:31;;;;;;;13.70;6.77;;;0.70;98.00;;;;;;4993923;28;20457;-69
2023/12/18 03:08:58;;;;;;;14.10;6.50;;;0.70;98.00;;;;;;4993519;28;20460;-69
2023/12/18 03:11:25;;;;;;;14.77;6.30;;;0.80;98.00;;;;;;4993384;28;20460;-70
2023/12/18 03:13:52;;;;;;;15.40;6.63;;;1.00;98.00;;;;;;4993337;28;20460;-70
2023/12/18 03:16:21;;;;;;;17.00;6.50;;;1.20;98.00;;;;;;4976205;28;20456;-70
2023/12/18 03:18:49;;;;;;;16.10;6.70;;;1.40;98.00;;;;;;4993557;28;20464;-70
2023/12/18 03:21:16;;;;;;;18.33;6.57;;;1.20;98.00;;;;;;4993098;28;20492;-70
2023/12/18 03:23:44;;;;;;;16.10;6.73;;;1.20;98.00;;;;;;4993260;28;20456;-70
2023/12/18 03:26:12;;;;;;;17.90;7.40;;;1.20;98.00;;;;;;4993088;28;20472;-71
2023/12/18 03:28:39;;;;;;;16.90;7.33;;;1.30;98.00;;;;;;4976108;28;20472;-70
2023/12/18 03:31:06;;;;;;;18.20;7.20;;;1.10;98.00;;;;;;4993114;28;20491;-70
2023/12/18 03:33:34;;;;;;;18.17;7.53;;;0.90;98.00;;;;;;4993172;28;20456;-69
2023/12/18 03:36:01;;;;;;;20.93;7.90;;;0.90;98.00;;;;;;4993076;28;20455;-70
2023/12/18 03:38:29;;;;;;;16.20;6.70;;;0.80;98.00;;;;;;4993326;28;20852;-70
2023/12/18 03:40:56;;;;;;;17.10;7.10;;;0.80;98.00;;;;;;4959500;28;20477;-70
2023/12/18 03:43:24;;;;;;;17.03;7.30;;;0.70;98.00;;;;;;4976087;28;20464;-70
2023/12/18 03:45:51;;;;;;;16.77;6.70;;;0.80;98.00;;;;;;4993116;28;20460;-69
2023/12/18 03:48:19;;;;;;;18.10;7.20;;;0.70;98.00;;;;;;4975631;28;20456;-70
2023/12/18 03:50:49;;;;;;;13.90;7.03;;;0.60;98.00;;;;;;4992930;28;20506;-70
2023/12/18 03:53:16;;;;;;;14.00;6.23;;;0.70;98.00;;;;;;4992828;28;20547;-70
2023/12/18 03:55:43;;;;;;;14.60;6.30;;;0.80;98.00;;;;;;4975750;28;20456;-70
2023/12/18 03:58:10;;;;;;;12.63;5.80;;;0.90;98.00;;;;;;4992806;28;20460;-70
2023/12/18 04:00:39;;;;;;;21.00;7.67;;;0.90;98.00;;;;;;4992801;28;20495;-70
2023/12/18 04:03:06;;;;;;;14.30;6.77;;;0.70;98.00;;;;;;4992762;28;20456;-70
2023/12/18 04:05:33;;;;;;;17.07;7.00;;;0.60;98.00;;;;;;4992913;28;20954;-70
2023/12/18 04:08:06;;;;;;;17.30;7.40;;;0.60;98.00;;;;;;4992817;28;21014;-70
2023/12/18 04:10:34;;;;;;;14.30;6.90;;;0.50;98.00;;;;;;4991352;28;20996;-70
2023/12/18 04:13:01;;;;;;;19.73;8.03;;;0.40;98.00;;;;;;4992516;28;20498;-70
2023/12/18 04:15:28;;;;;;;15.87;6.43;;;0.40;98.00;;;;;;4992501;28;20543;-70
2023/12/18 04:17:58;;;;;;;16.53;6.90;;;0.30;98.00;;;;;;4992725;28;20452;-70
2023/12/18 04:20:25;;;;;;;17.77;7.40;;;0.50;98.00;;;;;;4992649;28;20499;-70
2023/12/18 04:22:52;;;;;;;18.77;6.67;;;0.70;98.00;;;;;;4975717;28;20456;-70
2023/12/18 04:25:21;;;;;;;17.07;7.30;;;0.90;98.00;;;;;;4991829;28;20989;-69
2023/12/18 04:27:48;;;;;;;15.97;7.23;;;0.60;98.00;;;;;;4992724;28;20454;-70
2023/12/18 04:30:15;;;;;;;15.57;7.23;;;0.50;98.00;;;;;;4992575;28;20463;-70
2023/12/18 04:32:42;;;;;;;18.07;7.27;;;0.50;98.00;;;;;;4992550;28;20464;-70
2023/12/18 04:35:09;;;;;;;18.03;7.67;;;0.50;98.00;;;;;;4992551;28;20467;-70
2023/12/18 04:37:36;;;;;;;15.77;6.90;;;0.40;98.00;;;;;;4992448;28;20456;-70
2023/12/18 04:40:09;;;;;;;15.63;6.53;;;0.30;98.00;;;;;;4992585;28;20483;-69
2023/12/18 04:42:38;;;;;;;15.23;6.77;;;0.20;98.00;;;;;;4974939;28;20467;-70
2023/12/18 04:45:05;;;;;;;20.40;7.90;;;0.30;98.00;;;;;;4992152;28;20462;-70
2023/12/18 04:47:32;;;;;;;20.20;7.97;;;0.40;98.00;;;;;;4975117;28;21132;-70
2023/12/18 04:49:59;;;;;;;19.17;8.17;;;0.30;98.00;;;;;;4975153;28;20884;-70
2023/12/18 04:52:26;;;;;;;20.17;7.93;;;0.40;98.00;;;;;;4992155;28;20456;-70
2023/12/18 04:54:54;;;;;;;19.90;8.03;;;0.60;98.00;;;;;;4992339;28;20453;-69
2023/12/18 04:57:21;;;;;;;18.17;7.57;;;0.50;98.00;;;;;;4992394;28;20491;-70
2023/12/18 04:59:49;;;;;;;19.37;7.70;;;0.40;98.00;;;;;;4992109;28;20455;-70
2023/12/18 05:02:16;;;;;;;19.33;7.73;;;0.50;98.00;;;;;;4992204;28;20804;-70
2023/12/18 05:04:43;;;;;;;17.80;7.30;;;0.60;98.00;;;;;;4974493;28;20888;-70
2023/12/18 05:07:12;;;;;;;16.23;7.40;;;0.60;98.00;;;;;;4992079;28;20468;-70
2023/12/18 05:09:39;;;;;;;16.23;7.30;;;0.60;98.00;;;;;;4992137;28;20490;-70
2023/12/18 05:12:07;;;;;;;16.70;6.70;;;0.70;98.00;;;;;;4974680;28;20468;-70
2023/12/18 05:14:34;;;;;;;17.23;7.40;;;0.70;98.00;;;;;;4992151;28;20455;-70
2023/12/18 05:17:02;;;;;;;13.63;7.03;;;0.60;98.00;;;;;;4991988;28;20459;-70
2023/12/18 05:19:30;;;;;;;18.30;8.20;;;0.60;98.00;;;;;;4992055;28;20959;-70
2023/12/18 05:21:57;;;;;;;17.97;7.00;;;0.60;98.00;;;;;;4974542;28;20542;-70
2023/12/18 05:24:24;;;;;;;16.97;7.50;;;0.50;98.00;;;;;;4974493;28;20468;-69
2023/12/18 05:26:51;;;;;;;17.53;7.10;;;0.40;98.00;;;;;;4973345;28;20493;-70
2023/12/18 05:29:18;;;;;;;16.47;7.33;;;0.20;98.00;;;;;;4991999;28;20515;-69
2023/12/18 05:31:46;;;;;;;18.90;7.90;;;0.30;98.00;;;;;;4991867;28;20459;-70
2023/12/18 05:34:14;;;;;;;17.33;7.87;;;0.40;98.00;;;;;;4991864;28;20818;-70
2023/12/18 05:36:41;;;;;;;19.30;7.93;;;0.50;98.00;;;;;;4993239;28;20452;-69
2023/12/18 05:39:08;;;;;;;19.23;8.03;;;0.60;98.00;;;;;;4995393;28;20455;-70
2023/12/18 05:41:35;;;;;;;17.40;7.90;;;0.40;98.00;;;;;;4995281;28;20495;-70
2023/12/18 05:44:02;;;;;;;20.77;8.10;;;0.40;98.00;;;;;;4995142;28;20525;-70
2023/12/18 05:46:31;;;;;;;16.90;8.00;;;0.30;98.00;;;;;;4995376;28;20493;-69
2023/12/18 05:48:58;;;;;;;20.60;7.93;;;0.20;98.00;;;;;;4976126;28;20498;-69
2023/12/18 05:51:26;;;;;;;26.87;8.27;;;0.20;98.00;;;;;;4994940;28;20456;-69
2023/12/18 05:53:53;;;;;;;25.40;8.07;;;0.10;98.00;;;;;;4995298;28;20854;-71
2023/12/18 05:56:20;;;;;;;18.20;8.17;;;0.00;98.00;;;;;;4977450;28;20456;-71
2023/12/18 05:58:47;;;;;;;14.00;7.20;;;-0.10;98.00;;;;;;4995214;28;20455;-71
2023/12/18 06:01:14;;;;;;;17.03;6.53;;;-0.10;98.00;;;;;;4994248;28;21004;-70
2023/12/18 06:03:41;;;;;;;22.03;8.00;;;0.00;98.00;;;;;;4993066;28;20467;-70
2023/12/18 06:06:08;;;;;;;20.33;8.13;;;-0.10;98.00;;;;;;4976221;28;20852;-71
2023/12/18 06:08:37;;;;;;;17.70;8.30;;;-0.20;98.00;;;;;;4994622;28;20473;-70
2023/12/18 06:11:05;;;;;;;22.37;8.30;;;-0.10;98.00;;;;;;4994565;28;20487;-70
2023/12/18 06:13:34;;;;;;;20.20;8.10;;;0.00;98.00;;;;;;4994135;28;20587;-70
2023/12/18 06:16:01;;;;;;;17.67;7.70;;;0.00;98.00;;;;;;4994116;28;20454;-70
2023/12/18 06:18:28;;;;;;;16.40;7.40;;;0.20;98.00;;;;;;4994631;28;20470;-70
2023/12/18 06:20:55;;;;;;;19.13;7.57;;;0.30;98.00;;;;;;4993822;28;20491;-70
2023/12/18 06:23:22;;;;;;;16.30;7.00;;;0.40;98.00;;;;;;4994510;28;20459;-71
2023/12/18 06:25:51;;;;;;;17.87;7.67;;;0.30;98.00;;;;;;4994199;28;20467;-69
2023/12/18 06:28:18;;;;;;;17.67;7.03;;;0.30;98.00;;;;;;4994750;28;20795;-70
2023/12/18 06:30:45;;;;;;;17.60;7.60;;;0.30;98.00;;;;;;4994794;28;20463;-70
2023/12/18 06:33:12;;;;;;;19.27;7.53;;;0.30;98.00;;;;;;4993934;28;20474;-70
2023/12/18 06:35:39;;;;;;;24.77;8.03;;;0.30;98.00;;;;;;4994235;28;20951;-70
2023/12/18 06:38:06;;;;;;;20.07;8.30;;;0.20;98.00;;;;;;4994506;28;20927;-70
2023/12/18 06:40:33;;;;;;;22.37;8.40;;;0.10;98.00;;;;;;4976811;28;20480;-70
2023/12/18 06:43:02;;;;;;;18.37;7.53;;;0.20;98.00;;;;;;4994093;28;20952;-70
2023/12/18 06:45:29;;;;;;;13.40;6.60;;;0.20;98.00;;;;;;4994072;28;20466;-70
2023/12/18 06:47:57;;;;;;;19.50;7.77;;;0.20;98.00;;;;;;4993819;28;20483;-70
2023/12/18 06:50:24;;;;;;;17.60;7.30;;;0.10;98.00;;;;;;4976343;28;20459;-70
2023/12/18 06:52:53;;;;;;;16.13;7.43;;;0.00;98.00;;;;;;4976522;28;20452;-70
2023/12/18 06:55:21;;;;;;;22.60;8.50;;;0.00;98.00;;;;;;4993299;28;20460;-71
2023/12/18 06:57:48;;;;;;;18.40;8.17;;;-0.10;98.00;;;;;;4993812;28;20486;-70
2023/12/18 07:00:18;;;;;;;22.20;8.00;;;0.00;98.00;;;;;;4993798;28;20479;-68
2023/12/18 07:02:45;;;;;;;20.93;8.40;;;0.20;98.00;;;;;;4993837;28;20460;-64
2023/12/18 07:05:15;;;;;;;23.07;8.80;;;0.20;98.00;;;;;;4993613;28;20518;-64
2023/12/18 07:07:43;;;;;;;23.10;9.97;;;0.10;98.00;;;;;;4977058;28;20456;-64
2023/12/18 07:10:10;;;;;;;22.20;8.17;;;0.00;98.00;;;;;;4993394;28;20459;-64
2023/12/18 07:12:37;;;;;;;13.20;6.77;;;-0.10;98.00;;;;;;4993250;28;20478;-64
2023/12/18 07:15:06;;;;;;;19.20;7.73;;;-0.10;98.00;;;;;;4992924;28;20455;-64
2023/12/18 07:17:35;;;;;;;17.30;7.70;;;0.10;98.00;;;;;;4993209;28;20487;-64
2023/12/18 07:20:03;;;;;;;15.47;7.30;;;0.30;98.00;;;;;;4993091;28;20463;-64
2023/12/18 07:22:30;;;;;;;15.57;7.83;;;0.20;98.00;;;;;;4993310;28;20599;-65
2023/12/18 07:24:57;;;;;;;19.53;7.57;;;0.30;98.00;;;;;;4993038;28;20953;-64
2023/12/18 07:27:25;;;;;;;17.70;7.40;;;0.20;98.00;;;;;;4993119;28;20460;-64
2023/12/18 07:29:52;;;;;;;17.40;7.43;;;0.10;98.00;;;;;;4976139;28;20955;-65
2023/12/18 07:32:19;;;;;;;14.50;7.17;;;0.00;98.00;;;;;;4992659;28;20461;-64
2023/12/18 07:34:46;;;;;;;19.90;7.90;;;0.10;98.00;;;;;;4993306;28;20460;-64
2023/12/18 07:37:14;;;;;;;22.60;7.57;;;-0.10;98.00;;;;;;4992942;28;20473;-64
2023/12/18 07:39:41;;;;;;;17.37;7.50;;;-0.30;98.00;;;;;;4992505;28;20487;-64
2023/12/18 07:42:09;;;;;;;17.60;7.87;;;-0.20;98.00;;;;;;4975872;28;20487;-64
2023/12/18 07:44:35;;;;;;;12.87;6.70;;;-0.10;98.00;;;;;;4975941;28;20495;-64
2023/12/18 07:47:06;;;;;;;17.53;7.47;;;-0.10;98.00;;;;;;4992725;28;20518;-63
2023/12/18 07:49:34;;;;;;;15.40;7.63;;;0.00;98.00;;;;;;4993252;28;20455;-64
2023/12/18 07:52:04;;;;;;;15.67;6.90;;;0.00;98.00;;;;;;4992977;28;20856;-64
2023/12/18 07:54:31;;;;;;;12.70;6.50;;;0.10;98.00;;;;;;4993103;28;20456;-64
2023/12/18 07:56:58;;;;;;;13.33;6.63;;;0.20;98.00;;;;;;4975236;28;20453;-64
2023/12/18 07:59:25;;;;;;;17.33;7.60;;;0.30;98.00;;;;;;4992288;28;20464;-64
2023/12/18 08:01:52;;;;;;;18.50;7.30;;;0.20;98.00;;;;;;4992752;28;20512;-64
2023/12/18 08:04:19;;;;;;;30.80;10.83;;;0.10;98.00;;;;;;4992797;28;20463;-64
2023/12/18 08:06:49;;;;;;;26.23;10.17;;;0.00;98.00;;;;;;4992780;28;20938;-64
2023/12/18 08:09:18;;;;;;;22.10;9.00;;;0.00;98.00;;;;;;4992934;28;20460;-64
2023/12/18 08:11:45;;;;;;;21.80;8.93;;;0.00;98.00;;;;;;4992484;28;20456;-64
2023/12/18 08:14:12;;;;;;;25.63;7.77;;;0.00;98.00;;;;;;4992777;28;20468;-64
2023/12/18 08:16:39;;;;;;;16.20;7.77;;;0.10;98.00;;;;;;4992563;28;20468;-64
2023/12/18 08:19:08;;;;;;;24.50;9.13;;;0.10;98.00;;;;;;4992718;28;20460;-64
2023/12/18 08:21:35;;;;;;;18.87;8.50;;;0.00;98.00;;;;;;4975366;28;20499;-64
2023/12/18 08:24:03;;;;;;;22.97;9.40;;;0.00;98.00;;;;;;4992554;28;20550;-64
2023/12/18 08:26:31;;;;;;;20.63;8.50;;;0.00;98.00;;;;;;4992639;28;20462;-63
2023/12/18 08:28:58;;;;;;;18.83;8.37;;;0.10;98.00;;;;;;4992785;28;20514;-64
2023/12/18 08:31:26;;;;;;;19.10;8.67;;;0.30;98.00;;;;;;4991787;28;20463;-64
2023/12/18 08:33:53;;;;;;;19.67;9.07;;;0.30;98.00;;;;;;4980861;28;20457;-64
2023/12/18 08:36:21;;;;;;;22.20;8.53;;;0.30;98.00;;;;;;4972803;28;20560;-64
2023/12/18 08:38:47;;;;;;;23.90;8.50;;;0.40;98.00;;;;;;4973155;28;20481;-64
2023/12/18 08:41:14;;;;;;;22.63;8.97;;;0.40;98.00;;;;;;4972370;28;20933;-64
2023/12/18 08:43:43;;;;;;;26.93;9.20;;;0.50;98.00;;;;;;4972809;28;20465;-64
2023/12/18 08:46:10;;;;;;;22.07;9.10;;;0.50;98.00;;;;;;4972501;28;20460;-64
2023/12/18 08:48:37;;;;;;;21.70;9.00;;;0.50;98.00;;;;;;4955430;28;20955;-64
2023/12/18 08:51:04;;;;;;;20.80;8.70;;;0.60;98.00;;;;;;4972400;28;20460;-64
2023/12/18 08:53:31;;;;;;;19.37;8.13;;;0.60;98.00;;;;;;4955328;28;20944;-64
2023/12/18 08:55:58;;;;;;;20.90;8.87;;;0.70;98.00;;;;;;4972790;28;20469;-63
2023/12/18 08:58:26;;;;;;;22.87;8.80;;;0.70;98.00;;;;;;4972797;28;20453;-63
2023/12/18 09:00:54;;;;;;;16.50;7.67;;;0.90;98.00;;;;;;4972790;28;20881;-64
2023/12/18 09:03:21;;;;;;;19.73;7.93;;;0.90;98.00;;;;;;4972570;28;20511;-64
2023/12/18 09:05:50;;;;;;;17.87;7.90;;;1.00;98.00;;;;;;4972474;28;20463;-64
2023/12/18 09:08:17;;;;;;;24.70;9.40;;;1.10;98.00;;;;;;4972480;28;20948;-61
2023/12/18 09:10:44;;;;;;;26.43;9.83;;;1.10;98.00;;;;;;4957171;28;20449;-63
2023/12/18 09:13:11;;;;;;;19.07;8.10;;;1.20;98.00;;;;;;4976177;28;20469;-64
2023/12/18 09:15:40;;;;;;;19.40;8.63;;;1.20;98.00;;;;;;4975872;28;20982;-64
2023/12/18 09:18:11;;;;;;;15.47;7.27;;;1.20;98.00;;;;;;4976168;28;20452;-64
2023/12/18 09:20:38;;;;;;;18.60;8.10;;;1.20;98.00;;;;;;4975877;28;20449;-63
2023/12/18 09:23:08;;;;;;;17.30;8.57;;;1.20;98.00;;;;;;4974019;28;20983;-63
2023/12/18 09:25:35;;;;;;;25.60;8.67;;;1.20;98.00;;;;;;4975162;28;20472;-63
2023/12/18 09:28:05;;;;;;;21.40;9.00;;;1.20;98.00;;;;;;4974990;28;20964;-63
2023/12/18 09:30:32;;;;;;;23.50;9.87;;;1.20;98.00;;;;;;4975320;28;20461;-63
2023/12/18 09:33:00;;;;;;;44.93;15.10;;;1.30;98.00;;;;;;4974810;28;20519;-63
2023/12/18 09:35:28;;;;;;;34.83;12.57;;;1.40;98.00;;;;;;4975672;28;20869;-64
2023/12/18 09:37:58;;;;;;;35.97;14.23;;;1.40;98.00;;;;;;4975800;28;20461;-64
2023/12/18 09:40:25;;;;;;;28.93;9.93;;;1.40;98.00;;;;;;4975870;28;20529;-64
2023/12/18 09:42:53;;;;;;;25.07;9.73;;;1.50;98.00;;;;;;4975647;28;20492;-63
2023/12/18 09:45:23;;;;;;;18.60;8.30;;;1.60;98.00;;;;;;4975923;28;20511;-64
2023/12/18 09:47:50;;;;;;;19.50;8.50;;;1.70;98.00;;;;;;4975631;28;20465;-63
2023/12/18 09:50:18;;;;;;;20.03;8.43;;;1.70;98.00;;;;;;4975668;28;20460;-64
2023/12/18 09:52:54;;;;;;;21.63;9.13;;;1.80;98.00;;;;;;4975707;28;20461;-66
2023/12/18 09:55:21;;;;;;;16.83;7.47;;;1.80;98.00;;;;;;4975789;28;20457;-64
2023/12/18 09:57:50;;;;;;;26.40;9.57;;;1.80;98.00;;;;;;4975624;28;20464;-64
2023/12/18 10:00:21;;;;;;;21.70;9.23;;;2.00;98.00;;;;;;4975643;28;20449;-64
2023/12/18 10:02:49;;;;;;;19.97;9.27;;;2.10;98.00;;;;;;4973803;28;20505;-64
2023/12/18 10:05:16;;;;;;;22.70;10.30;;;2.30;98.00;;;;;;4958415;28;20468;-65
2023/12/18 10:07:43;;;;;;;22.03;9.23;;;2.20;98.00;;;;;;4975492;28;20577;-63
2023/12/18 10:10:12;;;;;;;23.10;9.90;;;2.10;98.00;;;;;;4958239;28;20457;-65
2023/12/18 10:12:39;;;;;;;25.17;9.40;;;2.20;98.00;;;;;;4975064;28;20458;-65
2023/12/18 10:15:11;;;;;;;19.17;8.83;;;2.30;98.00;;;;;;4974796;28;20465;-64
2023/12/18 10:17:39;;;;;;;20.80;9.50;;;2.30;98.00;;;;;;4969466;28;20552;-65
2023/12/18 10:20:09;;;;;;;21.20;9.30;;;2.40;98.00;;;;;;4974872;28;20941;-65
2023/12/18 10:22:36;;;;;;;22.47;10.10;;;2.40;98.00;;;;;;4973921;28;21003;-64
2023/12/18 10:25:04;;;;;;;23.40;9.93;;;2.40;98.00;;;;;;4974966;28;21139;-65
2023/12/18 10:27:33;;;;;;;20.27;9.60;;;2.40;98.00;;;;;;4974753;28;20456;-65
2023/12/18 10:30:00;;;;;;;26.30;9.60;;;2.50;98.00;;;;;;4974277;28;20458;-66
2023/12/18 10:32:28;;;;;;;22.80;9.80;;;2.70;98.00;;;;;;4974735;28;20778;-66
2023/12/18 10:34:56;;;;;;;22.30;9.60;;;2.70;98.00;;;;;;4974655;28;20491;-66
2023/12/18 10:37:25;;;;;;;24.53;10.00;;;2.80;98.00;;;;;;4974734;28;20519;-66
2023/12/18 10:39:55;;;;;;;25.87;10.97;;;2.80;98.00;;;;;;4974640;28;20460;-65
2023/12/18 10:42:31;;;;;;;26.23;10.43;;;2.80;98.00;;;;;;4974599;28;20494;-65
2023/12/18 10:45:04;;;;;;;22.70;10.37;;;2.80;98.00;;;;;;4974735;28;20559;-65
2023/12/18 10:47:32;;;;;;;23.40;10.30;;;2.90;98.00;;;;;;4974478;28;20461;-66
2023/12/18 10:50:01;;;;;;;22.03;9.97;;;3.00;98.00;;;;;;4974159;28;20457;-65
2023/12/18 10:52:29;;;;;;;21.60;9.20;;;3.00;98.00;;;;;;4974432;28;20946;-65
2023/12/18 10:54:58;;;;;;;23.87;9.40;;;3.10;98.00;;;;;;4974459;28;20529;-65
2023/12/18 10:57:27;;;;;;;21.70;10.17;;;3.20;98.00;;;;;;4974269;28;20467;-65
2023/12/18 10:59:54;;;;;;;21.00;8.93;;;3.20;98.00;;;;;;4957282;28;20952;-65
2023/12/18 11:02:24;;;;;;;20.93;8.60;;;3.30;98.00;;;;;;4974267;28;20497;-65
2023/12/18 11:04:52;;;;;;;26.80;8.70;;;3.50;98.00;;;;;;4973955;28;20451;-65
2023/12/18 11:07:19;;;;;;;24.27;8.93;;;3.70;98.00;;;;;;4973628;28;20456;-65
2023/12/18 11:09:47;;;;;;;21.27;8.00;;;3.90;98.00;;;;;;4973661;28;20517;-66
2023/12/18 11:12:17;;;;;;;20.57;8.83;;;4.00;98.00;;;;;;4974021;28;20459;-65
2023/12/18 11:14:58;;;;;;;20.60;8.43;;;4.10;98.00;;;;;;4974193;28;20458;-66
2023/12/18 11:17:42;;;;;;;23.13;10.13;;;4.20;98.00;;;;;;4973542;28;20463;-65
2023/12/18 11:20:19;;;;;;;17.87;8.43;;;4.40;98.00;;;;;;4954638;29;20811;-65
2023/12/18 11:22:49;;;;;;;19.93;8.60;;;4.60;98.00;;;;;;4954546;29;20488;-66
2023/12/18 11:25:18;;;;;;;19.87;8.53;;;4.90;98.00;;;;;;4954491;28;20474;-65
2023/12/18 11:27:45;;;;;;;15.53;8.10;;;5.10;98.00;;;;;;4954625;28;20481;-66
2023/12/18 11:30:25;;;;;;;23.17;7.83;;;5.40;98.00;;;;;;4954996;29;20458;-66
2023/12/18 11:33:20;;;;;;;11.87;6.17;;;5.50;98.00;;;;;;5048696;23;20488;-88
2023/12/18 16:01:48;;;;;;;11.27;4.30;;;5.00;98.00;;;;;;5025109;23;20497;-71
2023/12/18 16:04:16;;;;;;;9.70;4.50;;;5.00;98.00;;;;;;5012200;28;20489;-70
2023/12/18 16:06:43;;;;;;;10.10;4.90;;;5.00;98.00;;;;;;5012335;28;20562;-72
2023/12/18 16:09:18;;;;;;;8.60;4.63;;;4.90;98.00;;;;;;5012151;28;20973;-71
2023/12/18 16:11:45;;;;;;;11.33;5.30;;;4.70;98.00;;;;;;5008665;28;20467;-72
2023/12/18 16:14:12;;;;;;;10.97;5.57;;;4.60;98.00;;;;;;5012154;28;20447;-72
2023/12/18 16:16:39;;;;;;;10.73;5.40;;;4.50;98.00;;;;;;5012066;28;20452;-71
2023/12/18 16:19:08;;;;;;;10.40;5.10;;;4.50;98.00;;;;;;5011636;28;20636;-71
2023/12/18 16:21:35;;;;;;;12.80;5.57;;;4.50;98.00;;;;;;5011569;28;20455;-71
2023/12/18 16:24:02;;;;;;;12.03;5.63;;;4.50;98.00;;;;;;5011908;28;20479;-72
2023/12/18 16:26:34;;;;;;;10.40;5.27;;;4.60;98.00;;;;;;5011581;28;20455;-72
2023/12/18 16:29:01;;;;;;;11.63;5.47;;;4.60;98.00;;;;;;5012007;28;20478;-72
2023/12/18 16:31:28;;;;;;;11.10;5.27;;;4.60;98.00;;;;;;5011913;28;20460;-67
2023/12/18 16:33:55;;;;;;;13.40;5.63;;;4.50;98.00;;;;;;5012056;28;20519;-68
2023/12/18 16:36:27;;;;;;;11.33;5.23;;;4.40;98.00;;;;;;5011922;28;20481;-67
2023/12/18 16:38:54;;;;;;;11.27;5.07;;;4.20;98.00;;;;;;5012214;28;20453;-68
2023/12/18 16:41:22;;;;;;;15.00;5.70;;;4.00;98.00;;;;;;5011878;28;20463;-67
2023/12/18 16:43:51;;;;;;;11.70;5.30;;;4.00;98.00;;;;;;5011937;28;20487;-68
2023/12/18 16:46:17;;;;;;;13.60;6.07;;;3.90;98.00;;;;;;5011873;28;20474;-68
2023/12/18 16:48:44;;;;;;;15.40;6.80;;;3.90;98.00;;;;;;5011837;28;20456;-67
2023/12/18 16:51:12;;;;;;;15.37;6.33;;;3.90;98.00;;;;;;5011905;28;20482;-67
2023/12/18 16:53:40;;;;;;;11.83;5.43;;;3.90;98.00;;;;;;5011763;28;20457;-68
2023/12/18 16:56:07;;;;;;;18.60;7.10;;;3.70;98.00;;;;;;5011548;28;20479;-68
2023/12/18 16:58:33;;;;;;;19.50;7.57;;;3.80;98.00;;;;;;4991571;28;20951;-68
2023/12/18 17:01:01;;;;;;;15.87;6.77;;;3.80;98.00;;;;;;4997081;28;20553;-68
2023/12/18 17:03:28;;;;;;;17.77;6.30;;;3.80;98.00;;;;;;4997014;28;20501;-68
2023/12/18 17:05:56;;;;;;;12.73;5.97;;;3.80;98.00;;;;;;4992040;28;20453;-68
2023/12/18 17:08:24;;;;;;;12.90;5.80;;;3.70;98.00;;;;;;4974547;28;20525;-68
2023/12/18 17:10:53;;;;;;;16.03;6.60;;;3.60;98.00;;;;;;4995624;28;20462;-68
2023/12/18 17:13:22;;;;;;;14.23;5.80;;;3.60;98.00;;;;;;4990822;28;20458;-68
2023/12/18 17:15:50;;;;;;;15.50;6.50;;;3.60;98.00;;;;;;4992156;28;20574;-68